sensor_id;sensor_type;location;lat;lon;timestamp;P1;durP1;ratioP1;P2;durP2;ratioP2
78893;SDS011;68282;42.698;23.350;2024-02-21T00:02:10;7.10;;;4.25;;
78893;SDS011;68282;42.698;23.350;2024-02-21T00:04:37;6.97;;;3.33;;
78893;SDS011;68282;42.698;23.350;2024-02-21T00:07:03;5.65;;;3.33;;
78893;SDS011;68282;42.698;23.350;2024-02-21T00:09:30;6.88;;;3.85;;
78893;SDS011;68282;42.698;23.350;2024-02-21T00:11:56;5.90;;;3.75;;
78893;SDS011;68282;42.698;23.350;2024-02-21T00:14:22;5.05;;;3.22;;
78893;SDS011;68282;42.698;23.350;2024-02-21T00:16:47;5.13;;;3.30;;
78893;SDS011;68282;42.698;23.350;2024-02-21T00:19:13;4.65;;;3.58;;
78893;SDS011;68282;42.698;23.350;2024-02-21T00:21:40;6.10;;;3.67;;
78893;SDS011;68282;42.698;23.350;2024-02-21T00:24:06;6.07;;;3.80;;
78893;SDS011;68282;42.698;23.350;2024-02-21T00:26:32;6.00;;;4.15;;
78893;SDS011;68282;42.698;23.350;2024-02-21T00:28:58;6.97;;;3.35;;
78893;SDS011;68282;42.698;23.350;2024-02-21T00:31:23;6.68;;;3.83;;
78893;SDS011;68282;42.698;23.350;2024-02-21T00:33:49;7.40;;;4.15;;
78893;SDS011;68282;42.698;23.350;2024-02-21T00:36:15;7.68;;;3.90;;
78893;SDS011;68282;42.698;23.350;2024-02-21T00:38:41;6.63;;;3.80;;
78893;SDS011;68282;42.698;23.350;2024-02-21T00:41:06;7.03;;;4.15;;
78893;SDS011;68282;42.698;23.350;2024-02-21T00:43:32;7.68;;;3.80;;
78893;SDS011;68282;42.698;23.350;2024-02-21T00:46:22;6.32;;;3.60;;
78893;SDS011;68282;42.698;23.350;2024-02-21T00:48:48;7.35;;;3.42;;
78893;SDS011;68282;42.698;23.350;2024-02-21T00:51:23;6.38;;;3.67;;
78893;SDS011;68282;42.698;23.350;2024-02-21T00:53:49;5.97;;;3.78;;
78893;SDS011;68282;42.698;23.350;2024-02-21T00:56:14;5.78;;;3.05;;
78893;SDS011;68282;42.698;23.350;2024-02-21T00:58:41;5.20;;;3.35;;
78893;SDS011;68282;42.698;23.350;2024-02-21T01:01:07;6.18;;;3.92;;
78893;SDS011;68282;42.698;23.350;2024-02-21T01:03:32;4.38;;;2.92;;
78893;SDS011;68282;42.698;23.350;2024-02-21T01:05:58;5.68;;;3.00;;
78893;SDS011;68282;42.698;23.350;2024-02-21T01:08:23;4.32;;;3.03;;
78893;SDS011;68282;42.698;23.350;2024-02-21T01:10:49;5.57;;;3.25;;
78893;SDS011;68282;42.698;23.350;2024-02-21T01:13:15;5.65;;;3.20;;
78893;SDS011;68282;42.698;23.350;2024-02-21T01:15:40;6.75;;;4.07;;
78893;SDS011;68282;42.698;23.350;2024-02-21T01:18:06;10.98;;;5.22;;
78893;SDS011;68282;42.698;23.350;2024-02-21T01:20:31;8.30;;;3.85;;
78893;SDS011;68282;42.698;23.350;2024-02-21T01:22:57;5.65;;;3.30;;
78893;SDS011;68282;42.698;23.350;2024-02-21T01:25:22;5.75;;;3.15;;
78893;SDS011;68282;42.698;23.350;2024-02-21T01:27:48;6.97;;;4.05;;
78893;SDS011;68282;42.698;23.350;2024-02-21T01:30:13;12.52;;;6.13;;
78893;SDS011;68282;42.698;23.350;2024-02-21T01:32:39;7.32;;;4.47;;
78893;SDS011;68282;42.698;23.350;2024-02-21T01:35:07;5.60;;;3.60;;
78893;SDS011;68282;42.698;23.350;2024-02-21T01:37:33;9.55;;;4.55;;
78893;SDS011;68282;42.698;23.350;2024-02-21T01:39:58;7.97;;;4.50;;
78893;SDS011;68282;42.698;23.350;2024-02-21T01:42:24;8.38;;;4.22;;
78893;SDS011;68282;42.698;23.350;2024-02-21T01:44:50;5.75;;;4.00;;
78893;SDS011;68282;42.698;23.350;2024-02-21T01:47:16;7.72;;;4.22;;
78893;SDS011;68282;42.698;23.350;2024-02-21T01:49:41;5.45;;;3.60;;
78893;SDS011;68282;42.698;23.350;2024-02-21T01:52:08;6.13;;;3.90;;
78893;SDS011;68282;42.698;23.350;2024-02-21T01:54:34;7.75;;;4.60;;
78893;SDS011;68282;42.698;23.350;2024-02-21T01:57:00;6.75;;;4.18;;
78893;SDS011;68282;42.698;23.350;2024-02-21T01:59:26;7.65;;;4.32;;
78893;SDS011;68282;42.698;23.350;2024-02-21T02:01:52;8.57;;;3.78;;
78893;SDS011;68282;42.698;23.350;2024-02-21T02:04:20;10.48;;;4.93;;
78893;SDS011;68282;42.698;23.350;2024-02-21T02:06:46;8.07;;;4.40;;
78893;SDS011;68282;42.698;23.350;2024-02-21T02:09:11;7.60;;;3.75;;
78893;SDS011;68282;42.698;23.350;2024-02-21T02:11:37;8.35;;;4.40;;
78893;SDS011;68282;42.698;23.350;2024-02-21T02:14:02;6.97;;;3.80;;
78893;SDS011;68282;42.698;23.350;2024-02-21T02:16:28;6.35;;;3.40;;
78893;SDS011;68282;42.698;23.350;2024-02-21T02:18:53;6.32;;;4.00;;
78893;SDS011;68282;42.698;23.350;2024-02-21T02:24:03;6.82;;;4.38;;
78893;SDS011;68282;42.698;23.350;2024-02-21T02:26:29;8.45;;;4.60;;
78893;SDS011;68282;42.698;23.350;2024-02-21T02:28:55;6.35;;;4.53;;
78893;SDS011;68282;42.698;23.350;2024-02-21T02:31:20;9.95;;;4.80;;
78893;SDS011;68282;42.698;23.350;2024-02-21T02:33:46;7.22;;;4.88;;
78893;SDS011;68282;42.698;23.350;2024-02-21T02:36:13;7.70;;;4.47;;
78893;SDS011;68282;42.698;23.350;2024-02-21T02:38:38;10.40;;;5.63;;
78893;SDS011;68282;42.698;23.350;2024-02-21T02:41:04;7.95;;;4.93;;
78893;SDS011;68282;42.698;23.350;2024-02-21T02:43:29;7.88;;;4.47;;
78893;SDS011;68282;42.698;23.350;2024-02-21T02:45:55;7.22;;;4.35;;
78893;SDS011;68282;42.698;23.350;2024-02-21T02:48:20;7.88;;;4.55;;
78893;SDS011;68282;42.698;23.350;2024-02-21T02:50:46;9.18;;;5.00;;
78893;SDS011;68282;42.698;23.350;2024-02-21T02:53:12;8.50;;;4.85;;
78893;SDS011;68282;42.698;23.350;2024-02-21T02:55:37;8.98;;;4.93;;
78893;SDS011;68282;42.698;23.350;2024-02-21T02:58:03;7.47;;;4.28;;
78893;SDS011;68282;42.698;23.350;2024-02-21T03:00:28;7.40;;;5.05;;
78893;SDS011;68282;42.698;23.350;2024-02-21T03:02:54;10.30;;;4.85;;
78893;SDS011;68282;42.698;23.350;2024-02-21T03:05:20;8.80;;;5.13;;
78893;SDS011;68282;42.698;23.350;2024-02-21T03:07:47;7.22;;;4.18;;
78893;SDS011;68282;42.698;23.350;2024-02-21T03:10:15;7.60;;;4.75;;
78893;SDS011;68282;42.698;23.350;2024-02-21T03:12:45;9.02;;;4.97;;
78893;SDS011;68282;42.698;23.350;2024-02-21T03:15:12;7.32;;;4.63;;
78893;SDS011;68282;42.698;23.350;2024-02-21T03:17:38;7.68;;;4.85;;
78893;SDS011;68282;42.698;23.350;2024-02-21T03:20:04;6.65;;;4.57;;
78893;SDS011;68282;42.698;23.350;2024-02-21T03:22:39;9.07;;;5.47;;
78893;SDS011;68282;42.698;23.350;2024-02-21T03:25:05;11.65;;;6.03;;
78893;SDS011;68282;42.698;23.350;2024-02-21T03:27:31;10.30;;;5.75;;
78893;SDS011;68282;42.698;23.350;2024-02-21T03:29:57;10.38;;;5.63;;
78893;SDS011;68282;42.698;23.350;2024-02-21T03:32:22;8.45;;;5.57;;
78893;SDS011;68282;42.698;23.350;2024-02-21T03:34:48;8.85;;;4.60;;
78893;SDS011;68282;42.698;23.350;2024-02-21T03:37:13;9.75;;;5.95;;
78893;SDS011;68282;42.698;23.350;2024-02-21T03:39:39;9.18;;;5.68;;
78893;SDS011;68282;42.698;23.350;2024-02-21T03:42:05;11.40;;;5.60;;
78893;SDS011;68282;42.698;23.350;2024-02-21T03:44:31;10.45;;;6.03;;
78893;SDS011;68282;42.698;23.350;2024-02-21T03:46:58;9.30;;;5.85;;
78893;SDS011;68282;42.698;23.350;2024-02-21T03:49:25;8.55;;;5.90;;
78893;SDS011;68282;42.698;23.350;2024-02-21T03:51:50;11.52;;;5.80;;
78893;SDS011;68282;42.698;23.350;2024-02-21T03:54:17;9.85;;;6.20;;
78893;SDS011;68282;42.698;23.350;2024-02-21T03:56:43;9.77;;;5.82;;
78893;SDS011;68282;42.698;23.350;2024-02-21T03:59:08;10.70;;;6.20;;
78893;SDS011;68282;42.698;23.350;2024-02-21T04:01:34;10.00;;;6.53;;
78893;SDS011;68282;42.698;23.350;2024-02-21T04:04:00;9.93;;;5.25;;
78893;SDS011;68282;42.698;23.350;2024-02-21T04:06:26;10.38;;;5.90;;
78893;SDS011;68282;42.698;23.350;2024-02-21T04:08:52;9.18;;;5.88;;
78893;SDS011;68282;42.698;23.350;2024-02-21T04:11:17;10.77;;;5.65;;
78893;SDS011;68282;42.698;23.350;2024-02-21T04:13:44;10.43;;;6.03;;
78893;SDS011;68282;42.698;23.350;2024-02-21T04:16:10;12.77;;;7.10;;
78893;SDS011;68282;42.698;23.350;2024-02-21T04:18:36;10.20;;;6.22;;
78893;SDS011;68282;42.698;23.350;2024-02-21T04:21:01;9.02;;;6.07;;
78893;SDS011;68282;42.698;23.350;2024-02-21T04:23:27;10.70;;;5.93;;
78893;SDS011;68282;42.698;23.350;2024-02-21T04:25:52;9.82;;;5.93;;
78893;SDS011;68282;42.698;23.350;2024-02-21T04:28:18;9.90;;;6.32;;
78893;SDS011;68282;42.698;23.350;2024-02-21T04:30:43;10.63;;;5.72;;
78893;SDS011;68282;42.698;23.350;2024-02-21T04:33:09;11.50;;;6.03;;
78893;SDS011;68282;42.698;23.350;2024-02-21T04:35:35;9.70;;;6.43;;
78893;SDS011;68282;42.698;23.350;2024-02-21T04:38:02;9.15;;;4.85;;
78893;SDS011;68282;42.698;23.350;2024-02-21T04:40:27;9.68;;;5.75;;
78893;SDS011;68282;42.698;23.350;2024-02-21T04:42:53;8.43;;;5.40;;
78893;SDS011;68282;42.698;23.350;2024-02-21T04:45:19;10.70;;;6.65;;
78893;SDS011;68282;42.698;23.350;2024-02-21T04:47:45;9.15;;;6.35;;
78893;SDS011;68282;42.698;23.350;2024-02-21T04:50:11;10.80;;;6.07;;
78893;SDS011;68282;42.698;23.350;2024-02-21T04:52:37;9.73;;;6.00;;
78893;SDS011;68282;42.698;23.350;2024-02-21T04:55:03;10.98;;;6.28;;
78893;SDS011;68282;42.698;23.350;2024-02-21T04:57:29;12.48;;;6.38;;
78893;SDS011;68282;42.698;23.350;2024-02-21T04:59:55;10.32;;;5.75;;
78893;SDS011;68282;42.698;23.350;2024-02-21T05:02:20;9.27;;;5.30;;
78893;SDS011;68282;42.698;23.350;2024-02-21T05:04:47;9.25;;;5.85;;
78893;SDS011;68282;42.698;23.350;2024-02-21T05:07:13;10.77;;;6.40;;
78893;SDS011;68282;42.698;23.350;2024-02-21T05:09:41;8.88;;;5.93;;
78893;SDS011;68282;42.698;23.350;2024-02-21T05:12:07;14.68;;;7.50;;
78893;SDS011;68282;42.698;23.350;2024-02-21T05:14:33;13.38;;;7.75;;
78893;SDS011;68282;42.698;23.350;2024-02-21T05:16:59;12.00;;;7.22;;
78893;SDS011;68282;42.698;23.350;2024-02-21T05:19:24;11.48;;;7.57;;
78893;SDS011;68282;42.698;23.350;2024-02-21T05:21:51;15.43;;;7.20;;
78893;SDS011;68282;42.698;23.350;2024-02-21T05:24:17;11.73;;;7.35;;
78893;SDS011;68282;42.698;23.350;2024-02-21T05:26:42;12.75;;;7.35;;
78893;SDS011;68282;42.698;23.350;2024-02-21T05:29:08;11.20;;;6.88;;
78893;SDS011;68282;42.698;23.350;2024-02-21T05:34:18;11.15;;;7.60;;
78893;SDS011;68282;42.698;23.350;2024-02-21T05:36:44;14.10;;;8.23;;
78893;SDS011;68282;42.698;23.350;2024-02-21T05:39:09;13.05;;;7.32;;
78893;SDS011;68282;42.698;23.350;2024-02-21T05:41:35;11.80;;;7.70;;
78893;SDS011;68282;42.698;23.350;2024-02-21T05:44:01;12.00;;;6.72;;
78893;SDS011;68282;42.698;23.350;2024-02-21T05:46:27;12.68;;;7.25;;
78893;SDS011;68282;42.698;23.350;2024-02-21T05:48:53;11.85;;;7.22;;
78893;SDS011;68282;42.698;23.350;2024-02-21T05:51:19;14.48;;;7.05;;
78893;SDS011;68282;42.698;23.350;2024-02-21T05:53:45;13.60;;;7.95;;
78893;SDS011;68282;42.698;23.350;2024-02-21T05:56:10;12.32;;;7.70;;
78893;SDS011;68282;42.698;23.350;2024-02-21T05:58:37;10.55;;;7.25;;
78893;SDS011;68282;42.698;23.350;2024-02-21T06:01:04;10.85;;;7.30;;
78893;SDS011;68282;42.698;23.350;2024-02-21T06:03:31;12.52;;;7.60;;
78893;SDS011;68282;42.698;23.350;2024-02-21T06:05:58;12.40;;;7.22;;
78893;SDS011;68282;42.698;23.350;2024-02-21T06:08:24;12.43;;;7.95;;
78893;SDS011;68282;42.698;23.350;2024-02-21T06:10:50;11.90;;;8.00;;
78893;SDS011;68282;42.698;23.350;2024-02-21T06:13:19;12.25;;;7.93;;
78893;SDS011;68282;42.698;23.350;2024-02-21T06:18:15;17.65;;;9.68;;
78893;SDS011;68282;42.698;23.350;2024-02-21T06:20:42;14.13;;;8.95;;
78893;SDS011;68282;42.698;23.350;2024-02-21T06:23:08;18.67;;;10.32;;
78893;SDS011;68282;42.698;23.350;2024-02-21T06:25:34;18.90;;;10.07;;
78893;SDS011;68282;42.698;23.350;2024-02-21T06:27:59;18.98;;;8.80;;
78893;SDS011;68282;42.698;23.350;2024-02-21T06:30:25;17.17;;;8.10;;
78893;SDS011;68282;42.698;23.350;2024-02-21T06:32:50;19.52;;;8.73;;
78893;SDS011;68282;42.698;23.350;2024-02-21T06:35:16;14.45;;;8.02;;
78893;SDS011;68282;42.698;23.350;2024-02-21T06:37:42;15.98;;;8.75;;
78893;SDS011;68282;42.698;23.350;2024-02-21T06:40:15;14.32;;;8.38;;
78893;SDS011;68282;42.698;23.350;2024-02-21T06:42:41;14.65;;;8.25;;
78893;SDS011;68282;42.698;23.350;2024-02-21T06:45:06;14.60;;;8.48;;
78893;SDS011;68282;42.698;23.350;2024-02-21T06:47:32;16.77;;;9.23;;
78893;SDS011;68282;42.698;23.350;2024-02-21T06:49:57;15.50;;;10.38;;
78893;SDS011;68282;42.698;23.350;2024-02-21T06:52:23;22.15;;;12.32;;
78893;SDS011;68282;42.698;23.350;2024-02-21T06:54:50;18.35;;;9.98;;
78893;SDS011;68282;42.698;23.350;2024-02-21T06:57:15;18.73;;;9.40;;
78893;SDS011;68282;42.698;23.350;2024-02-21T06:59:41;20.55;;;11.25;;
78893;SDS011;68282;42.698;23.350;2024-02-21T07:02:08;18.95;;;10.25;;
78893;SDS011;68282;42.698;23.350;2024-02-21T07:04:34;16.08;;;9.35;;
78893;SDS011;68282;42.698;23.350;2024-02-21T07:07:00;25.17;;;11.18;;
78893;SDS011;68282;42.698;23.350;2024-02-21T07:09:26;18.55;;;10.95;;
78893;SDS011;68282;42.698;23.350;2024-02-21T07:11:53;19.70;;;11.07;;
78893;SDS011;68282;42.698;23.350;2024-02-21T07:14:19;28.20;;;11.30;;
78893;SDS011;68282;42.698;23.350;2024-02-21T07:16:46;16.42;;;8.73;;
78893;SDS011;68282;42.698;23.350;2024-02-21T07:19:11;19.25;;;9.70;;
78893;SDS011;68282;42.698;23.350;2024-02-21T07:21:37;21.85;;;9.30;;
78893;SDS011;68282;42.698;23.350;2024-02-21T07:24:07;14.60;;;8.30;;
78893;SDS011;68282;42.698;23.350;2024-02-21T07:29:57;19.80;;;8.57;;
78893;SDS011;68282;42.698;23.350;2024-02-21T07:32:23;14.23;;;8.63;;
78893;SDS011;68282;42.698;23.350;2024-02-21T07:34:49;13.65;;;8.13;;
78893;SDS011;68282;42.698;23.350;2024-02-21T07:37:15;16.13;;;9.60;;
78893;SDS011;68282;42.698;23.350;2024-02-21T07:39:41;15.88;;;8.57;;
78893;SDS011;68282;42.698;23.350;2024-02-21T07:42:07;18.63;;;9.52;;
78893;SDS011;68282;42.698;23.350;2024-02-21T07:44:32;11.23;;;7.18;;
78893;SDS011;68282;42.698;23.350;2024-02-21T07:46:59;12.48;;;7.75;;
78893;SDS011;68282;42.698;23.350;2024-02-21T07:49:25;14.05;;;7.57;;
78893;SDS011;68282;42.698;23.350;2024-02-21T07:51:52;14.48;;;8.20;;
78893;SDS011;68282;42.698;23.350;2024-02-21T07:54:17;15.20;;;7.90;;
78893;SDS011;68282;42.698;23.350;2024-02-21T07:56:43;16.33;;;7.85;;
78893;SDS011;68282;42.698;23.350;2024-02-21T07:59:09;14.57;;;8.18;;
78893;SDS011;68282;42.698;23.350;2024-02-21T08:01:34;14.57;;;8.05;;
78893;SDS011;68282;42.698;23.350;2024-02-21T08:04:01;20.30;;;7.55;;
78893;SDS011;68282;42.698;23.350;2024-02-21T08:06:30;14.63;;;7.93;;
78893;SDS011;68282;42.698;23.350;2024-02-21T08:08:57;17.52;;;8.32;;
78893;SDS011;68282;42.698;23.350;2024-02-21T08:11:33;14.57;;;7.80;;
78893;SDS011;68282;42.698;23.350;2024-02-21T08:14:08;16.20;;;8.48;;
78893;SDS011;68282;42.698;23.350;2024-02-21T08:16:34;19.08;;;9.10;;
78893;SDS011;68282;42.698;23.350;2024-02-21T08:19:00;14.60;;;8.82;;
78893;SDS011;68282;42.698;23.350;2024-02-21T08:21:28;10.40;;;6.60;;
78893;SDS011;68282;42.698;23.350;2024-02-21T08:23:53;15.27;;;7.45;;
78893;SDS011;68282;42.698;23.350;2024-02-21T08:26:19;21.02;;;9.98;;
78893;SDS011;68282;42.698;23.350;2024-02-21T08:28:48;18.80;;;9.27;;
78893;SDS011;68282;42.698;23.350;2024-02-21T08:31:21;21.70;;;9.57;;
78893;SDS011;68282;42.698;23.350;2024-02-21T08:33:49;17.85;;;8.65;;
78893;SDS011;68282;42.698;23.350;2024-02-21T08:36:18;16.52;;;7.95;;
78893;SDS011;68282;42.698;23.350;2024-02-21T08:38:44;16.83;;;8.80;;
78893;SDS011;68282;42.698;23.350;2024-02-21T08:41:10;15.48;;;8.77;;
78893;SDS011;68282;42.698;23.350;2024-02-21T08:43:37;13.38;;;7.88;;
78893;SDS011;68282;42.698;23.350;2024-02-21T08:46:03;13.95;;;7.82;;
78893;SDS011;68282;42.698;23.350;2024-02-21T08:48:30;14.20;;;7.88;;
78893;SDS011;68282;42.698;23.350;2024-02-21T08:50:55;11.65;;;7.57;;
78893;SDS011;68282;42.698;23.350;2024-02-21T08:53:22;13.45;;;7.55;;
78893;SDS011;68282;42.698;23.350;2024-02-21T08:55:47;14.57;;;8.18;;
78893;SDS011;68282;42.698;23.350;2024-02-21T08:58:13;16.63;;;8.95;;
78893;SDS011;68282;42.698;23.350;2024-02-21T09:00:39;12.75;;;7.50;;
78893;SDS011;68282;42.698;23.350;2024-02-21T09:03:05;15.75;;;8.20;;
78893;SDS011;68282;42.698;23.350;2024-02-21T09:05:30;13.98;;;8.00;;
78893;SDS011;68282;42.698;23.350;2024-02-21T09:07:56;11.10;;;6.93;;
78893;SDS011;68282;42.698;23.350;2024-02-21T09:10:27;15.90;;;9.15;;
78893;SDS011;68282;42.698;23.350;2024-02-21T09:12:52;18.80;;;8.73;;
78893;SDS011;68282;42.698;23.350;2024-02-21T09:15:17;15.30;;;7.43;;
78893;SDS011;68282;42.698;23.350;2024-02-21T09:17:43;14.77;;;6.88;;
78893;SDS011;68282;42.698;23.350;2024-02-21T09:20:09;13.32;;;8.25;;
78893;SDS011;68282;42.698;23.350;2024-02-21T09:22:37;14.75;;;7.95;;
78893;SDS011;68282;42.698;23.350;2024-02-21T09:25:05;11.60;;;7.35;;
78893;SDS011;68282;42.698;23.350;2024-02-21T09:27:31;12.65;;;7.95;;
78893;SDS011;68282;42.698;23.350;2024-02-21T09:29:58;12.20;;;7.60;;
78893;SDS011;68282;42.698;23.350;2024-02-21T09:32:23;14.30;;;7.28;;
78893;SDS011;68282;42.698;23.350;2024-02-21T09:34:49;11.88;;;7.07;;
78893;SDS011;68282;42.698;23.350;2024-02-21T09:37:20;13.98;;;8.18;;
78893;SDS011;68282;42.698;23.350;2024-02-21T09:39:46;19.77;;;7.15;;
78893;SDS011;68282;42.698;23.350;2024-02-21T09:42:13;13.48;;;7.55;;
78893;SDS011;68282;42.698;23.350;2024-02-21T09:44:43;12.23;;;7.10;;
78893;SDS011;68282;42.698;23.350;2024-02-21T09:47:22;13.52;;;7.45;;
78893;SDS011;68282;42.698;23.350;2024-02-21T09:49:58;10.68;;;6.57;;
78893;SDS011;68282;42.698;23.350;2024-02-21T09:52:26;12.82;;;7.30;;
78893;SDS011;68282;42.698;23.350;2024-02-21T09:54:52;12.15;;;7.35;;
78893;SDS011;68282;42.698;23.350;2024-02-21T09:57:19;12.52;;;7.65;;
78893;SDS011;68282;42.698;23.350;2024-02-21T09:59:45;12.30;;;7.00;;
78893;SDS011;68282;42.698;23.350;2024-02-21T10:02:11;12.25;;;7.25;;
78893;SDS011;68282;42.698;23.350;2024-02-21T10:04:37;14.27;;;7.15;;
78893;SDS011;68282;42.698;23.350;2024-02-21T10:07:05;11.23;;;6.57;;
78893;SDS011;68282;42.698;23.350;2024-02-21T10:09:31;11.45;;;6.80;;
78893;SDS011;68282;42.698;23.350;2024-02-21T10:12:10;10.90;;;5.82;;
78893;SDS011;68282;42.698;23.350;2024-02-21T10:14:37;11.40;;;6.60;;
78893;SDS011;68282;42.698;23.350;2024-02-21T10:17:03;10.27;;;5.97;;
78893;SDS011;68282;42.698;23.350;2024-02-21T10:19:34;9.93;;;5.47;;
78893;SDS011;68282;42.698;23.350;2024-02-21T10:22:07;11.13;;;6.25;;
78893;SDS011;68282;42.698;23.350;2024-02-21T10:24:34;13.57;;;6.45;;
78893;SDS011;68282;42.698;23.350;2024-02-21T10:27:03;10.48;;;6.55;;
78893;SDS011;68282;42.698;23.350;2024-02-21T10:29:33;10.05;;;6.68;;
78893;SDS011;68282;42.698;23.350;2024-02-21T10:32:09;13.90;;;6.63;;
78893;SDS011;68282;42.698;23.350;2024-02-21T10:34:39;10.90;;;5.65;;
78893;SDS011;68282;42.698;23.350;2024-02-21T10:37:07;9.02;;;5.72;;
78893;SDS011;68282;42.698;23.350;2024-02-21T10:39:34;9.48;;;6.25;;
78893;SDS011;68282;42.698;23.350;2024-02-21T10:42:01;9.15;;;6.10;;
78893;SDS011;68282;42.698;23.350;2024-02-21T10:44:36;8.77;;;5.03;;
78893;SDS011;68282;42.698;23.350;2024-02-21T10:47:08;10.35;;;5.63;;
78893;SDS011;68282;42.698;23.350;2024-02-21T10:49:37;13.48;;;5.75;;
78893;SDS011;68282;42.698;23.350;2024-02-21T10:57:15;8.27;;;5.18;;
78893;SDS011;68282;42.698;23.350;2024-02-21T10:59:44;11.80;;;6.03;;
78893;SDS011;68282;42.698;23.350;2024-02-21T11:02:10;9.57;;;5.60;;
78893;SDS011;68282;42.698;23.350;2024-02-21T11:04:35;7.95;;;5.50;;
78893;SDS011;68282;42.698;23.350;2024-02-21T11:07:03;6.25;;;4.45;;
78893;SDS011;68282;42.698;23.350;2024-02-21T11:09:30;7.50;;;4.85;;
78893;SDS011;68282;42.698;23.350;2024-02-21T11:11:57;6.75;;;4.15;;
78893;SDS011;68282;42.698;23.350;2024-02-21T11:14:26;6.30;;;3.97;;
78893;SDS011;68282;42.698;23.350;2024-02-21T11:16:53;5.53;;;3.67;;
78893;SDS011;68282;42.698;23.350;2024-02-21T11:19:30;6.40;;;4.07;;
78893;SDS011;68282;42.698;23.350;2024-02-21T11:24:26;4.95;;;3.08;;
78893;SDS011;68282;42.698;23.350;2024-02-21T11:27:14;4.97;;;3.35;;
78893;SDS011;68282;42.698;23.350;2024-02-21T11:32:10;5.35;;;3.22;;
78893;SDS011;68282;42.698;23.350;2024-02-21T11:39:53;6.60;;;3.55;;
78893;SDS011;68282;42.698;23.350;2024-02-21T11:42:19;8.23;;;3.78;;
78893;SDS011;68282;42.698;23.350;2024-02-21T11:44:45;4.78;;;2.72;;
78893;SDS011;68282;42.698;23.350;2024-02-21T11:47:13;6.32;;;3.75;;
78893;SDS011;68282;42.698;23.350;2024-02-21T11:49:46;5.97;;;3.78;;
78893;SDS011;68282;42.698;23.350;2024-02-21T11:52:14;5.80;;;3.42;;
78893;SDS011;68282;42.698;23.350;2024-02-21T11:54:44;6.43;;;3.33;;
78893;SDS011;68282;42.698;23.350;2024-02-21T11:57:10;8.80;;;4.28;;
78893;SDS011;68282;42.698;23.350;2024-02-21T11:59:39;5.90;;;3.67;;
78893;SDS011;68282;42.698;23.350;2024-02-21T12:02:05;5.63;;;4.28;;
78893;SDS011;68282;42.698;23.350;2024-02-21T12:04:31;4.93;;;3.17;;
78893;SDS011;68282;42.698;23.350;2024-02-21T12:06:57;5.90;;;3.95;;
78893;SDS011;68282;42.698;23.350;2024-02-21T12:09:24;7.22;;;3.80;;
78893;SDS011;68282;42.698;23.350;2024-02-21T12:12:00;6.13;;;4.28;;
78893;SDS011;68282;42.698;23.350;2024-02-21T12:14:31;14.93;;;4.32;;
78893;SDS011;68282;42.698;23.350;2024-02-21T12:16:58;7.45;;;4.53;;
78893;SDS011;68282;42.698;23.350;2024-02-21T12:19:24;7.88;;;4.25;;
78893;SDS011;68282;42.698;23.350;2024-02-21T12:21:51;6.30;;;4.25;;
78893;SDS011;68282;42.698;23.350;2024-02-21T12:24:24;8.57;;;4.78;;
78893;SDS011;68282;42.698;23.350;2024-02-21T12:26:51;5.57;;;3.35;;
78893;SDS011;68282;42.698;23.350;2024-02-21T12:29:18;5.70;;;3.30;;
78893;SDS011;68282;42.698;23.350;2024-02-21T12:31:48;6.78;;;3.70;;
78893;SDS011;68282;42.698;23.350;2024-02-21T12:34:14;7.32;;;4.05;;
78893;SDS011;68282;42.698;23.350;2024-02-21T12:36:41;7.80;;;3.95;;
78893;SDS011;68282;42.698;23.350;2024-02-21T12:39:11;9.13;;;3.97;;
78893;SDS011;68282;42.698;23.350;2024-02-21T12:41:37;8.85;;;4.50;;
78893;SDS011;68282;42.698;23.350;2024-02-21T12:44:06;9.55;;;5.25;;
78893;SDS011;68282;42.698;23.350;2024-02-21T12:48:58;12.00;;;5.40;;
78893;SDS011;68282;42.698;23.350;2024-02-21T12:51:25;7.18;;;4.20;;
78893;SDS011;68282;42.698;23.350;2024-02-21T12:53:50;8.90;;;4.57;;
78893;SDS011;68282;42.698;23.350;2024-02-21T12:56:16;7.32;;;5.38;;
78893;SDS011;68282;42.698;23.350;2024-02-21T12:58:42;12.15;;;5.57;;
78893;SDS011;68282;42.698;23.350;2024-02-21T13:01:07;10.55;;;6.10;;
78893;SDS011;68282;42.698;23.350;2024-02-21T13:03:34;12.73;;;5.20;;
78893;SDS011;68282;42.698;23.350;2024-02-21T13:05:59;11.98;;;6.43;;
78893;SDS011;68282;42.698;23.350;2024-02-21T13:08:25;7.57;;;4.78;;
78893;SDS011;68282;42.698;23.350;2024-02-21T13:10:51;9.00;;;5.40;;
78893;SDS011;68282;42.698;23.350;2024-02-21T13:13:16;8.57;;;5.25;;
78893;SDS011;68282;42.698;23.350;2024-02-21T13:15:42;8.70;;;5.65;;
78893;SDS011;68282;42.698;23.350;2024-02-21T13:18:08;9.35;;;5.50;;
78893;SDS011;68282;42.698;23.350;2024-02-21T13:20:36;8.75;;;4.90;;
78893;SDS011;68282;42.698;23.350;2024-02-21T13:23:03;10.50;;;5.28;;
78893;SDS011;68282;42.698;23.350;2024-02-21T13:25:28;17.40;;;8.55;;
78893;SDS011;68282;42.698;23.350;2024-02-21T13:27:54;11.85;;;6.93;;
78893;SDS011;68282;42.698;23.350;2024-02-21T13:30:21;7.57;;;5.00;;
78893;SDS011;68282;42.698;23.350;2024-02-21T13:32:47;4.90;;;3.10;;
78893;SDS011;68282;42.698;23.350;2024-02-21T13:35:12;6.20;;;3.78;;
78893;SDS011;68282;42.698;23.350;2024-02-21T13:37:40;8.57;;;4.70;;
78893;SDS011;68282;42.698;23.350;2024-02-21T13:40:07;6.57;;;4.28;;
78893;SDS011;68282;42.698;23.350;2024-02-21T13:45:04;7.55;;;3.92;;
78893;SDS011;68282;42.698;23.350;2024-02-21T13:47:31;8.05;;;4.13;;
78893;SDS011;68282;42.698;23.350;2024-02-21T13:49:57;9.38;;;4.30;;
78893;SDS011;68282;42.698;23.350;2024-02-21T13:52:23;9.65;;;5.18;;
78893;SDS011;68282;42.698;23.350;2024-02-21T13:54:51;8.63;;;5.22;;
78893;SDS011;68282;42.698;23.350;2024-02-21T13:57:17;10.73;;;5.78;;
78893;SDS011;68282;42.698;23.350;2024-02-21T13:59:43;8.73;;;4.38;;
78893;SDS011;68282;42.698;23.350;2024-02-21T14:02:08;9.13;;;4.95;;
78893;SDS011;68282;42.698;23.350;2024-02-21T14:04:35;12.95;;;4.97;;
78893;SDS011;68282;42.698;23.350;2024-02-21T14:07:00;13.27;;;5.43;;
78893;SDS011;68282;42.698;23.350;2024-02-21T14:09:27;8.35;;;4.60;;
78893;SDS011;68282;42.698;23.350;2024-02-21T14:11:54;8.95;;;4.78;;
78893;SDS011;68282;42.698;23.350;2024-02-21T14:14:20;7.80;;;4.70;;
78893;SDS011;68282;42.698;23.350;2024-02-21T14:16:46;7.03;;;4.20;;
78893;SDS011;68282;42.698;23.350;2024-02-21T14:19:13;7.05;;;4.00;;
78893;SDS011;68282;42.698;23.350;2024-02-21T14:21:39;5.47;;;3.72;;
78893;SDS011;68282;42.698;23.350;2024-02-21T14:24:05;11.98;;;5.03;;
78893;SDS011;68282;42.698;23.350;2024-02-21T14:26:31;10.48;;;5.05;;
78893;SDS011;68282;42.698;23.350;2024-02-21T14:28:57;12.93;;;7.68;;
78893;SDS011;68282;42.698;23.350;2024-02-21T14:31:24;7.75;;;5.47;;
78893;SDS011;68282;42.698;23.350;2024-02-21T14:33:50;12.13;;;4.97;;
78893;SDS011;68282;42.698;23.350;2024-02-21T14:36:16;10.52;;;6.13;;
78893;SDS011;68282;42.698;23.350;2024-02-21T14:38:42;10.93;;;5.28;;
78893;SDS011;68282;42.698;23.350;2024-02-21T14:41:08;8.15;;;4.82;;
78893;SDS011;68282;42.698;23.350;2024-02-21T14:43:37;10.25;;;5.93;;
78893;SDS011;68282;42.698;23.350;2024-02-21T14:46:03;6.90;;;4.50;;
78893;SDS011;68282;42.698;23.350;2024-02-21T14:48:29;7.88;;;4.93;;
78893;SDS011;68282;42.698;23.350;2024-02-21T14:50:56;7.00;;;4.50;;
78893;SDS011;68282;42.698;23.350;2024-02-21T14:53:22;6.22;;;4.30;;
78893;SDS011;68282;42.698;23.350;2024-02-21T14:55:48;6.93;;;4.75;;
78893;SDS011;68282;42.698;23.350;2024-02-21T14:58:14;9.98;;;5.13;;